sensor_id;sensor_type;location;lat;lon;timestamp;temperature;humidity
80495;DHT22;69819;48.798;11.770;2023-06-01T00:01:41;18.40;40.20
80495;DHT22;69819;48.798;11.770;2023-06-01T00:04:07;18.40;40.30
80495;DHT22;69819;48.798;11.770;2023-06-01T00:06:33;18.30;40.30
80495;DHT22;69819;48.798;11.770;2023-06-01T00:08:59;18.20;40.30
80495;DHT22;69819;48.798;11.770;2023-06-01T00:11:26;18.20;40.40
80495;DHT22;69819;48.798;11.770;2023-06-01T00:13:52;18.20;40.60
80495;DHT22;69819;48.798;11.770;2023-06-01T00:16:18;18.10;40.50
80495;DHT22;69819;48.798;11.770;2023-06-01T00:18:44;18.10;40.60
80495;DHT22;69819;48.798;11.770;2023-06-01T00:21:11;18.00;40.70
80495;DHT22;69819;48.798;11.770;2023-06-01T00:23:37;17.90;40.70
80495;DHT22;69819;48.798;11.770;2023-06-01T00:26:07;17.90;40.90
80495;DHT22;69819;48.798;11.770;2023-06-01T00:28:33;17.80;41.10
80495;DHT22;69819;48.798;11.770;2023-06-01T00:30:59;17.80;41.00
80495;DHT22;69819;48.798;11.770;2023-06-01T00:33:25;17.70;41.20
80495;DHT22;69819;48.798;11.770;2023-06-01T00:35:51;17.60;41.40
80495;DHT22;69819;48.798;11.770;2023-06-01T00:38:17;17.60;41.50
80495;DHT22;69819;48.798;11.770;2023-06-01T00:40:43;17.50;41.60
80495;DHT22;69819;48.798;11.770;2023-06-01T00:43:10;17.50;41.80
80495;DHT22;69819;48.798;11.770;2023-06-01T00:45:36;17.40;41.90
80495;DHT22;69819;48.798;11.770;2023-06-01T00:48:06;17.40;42.00
80495;DHT22;69819;48.798;11.770;2023-06-01T00:50:33;17.30;41.90
80495;DHT22;69819;48.798;11.770;2023-06-01T00:53:00;17.30;42.00
80495;DHT22;69819;48.798;11.770;2023-06-01T00:55:28;17.20;41.90
80495;DHT22;69819;48.798;11.770;2023-06-01T00:57:55;17.20;41.90
80495;DHT22;69819;48.798;11.770;2023-06-01T01:00:21;17.20;42.10
80495;DHT22;69819;48.798;11.770;2023-06-01T01:02:48;17.10;42.20
80495;DHT22;69819;48.798;11.770;2023-06-01T01:05:15;17.00;42.40
80495;DHT22;69819;48.798;11.770;2023-06-01T01:08:20;17.00;42.70
80495;DHT22;69819;48.798;11.770;2023-06-01T01:11:06;16.90;43.10
80495;DHT22;69819;48.798;11.770;2023-06-01T01:14:11;16.90;42.90
80495;DHT22;69819;48.798;11.770;2023-06-01T01:17:02;16.80;43.30
80495;DHT22;69819;48.798;11.770;2023-06-01T01:20:03;16.70;43.20
80495;DHT22;69819;48.798;11.770;2023-06-01T01:28:49;16.50;43.60
80495;DHT22;69819;48.798;11.770;2023-06-01T01:31:19;16.50;42.90
80495;DHT22;69819;48.798;11.770;2023-06-01T01:33:50;16.50;43.20
80495;DHT22;69819;48.798;11.770;2023-06-01T01:36:18;16.40;43.60
80495;DHT22;69819;48.798;11.770;2023-06-01T01:38:45;16.40;43.60
80495;DHT22;69819;48.798;11.770;2023-06-01T01:41:12;16.30;43.80
80495;DHT22;69819;48.798;11.770;2023-06-01T01:43:38;16.30;43.90
80495;DHT22;69819;48.798;11.770;2023-06-01T01:46:30;16.20;44.20
80495;DHT22;69819;48.798;11.770;2023-06-01T01:52:15;16.20;44.40
80495;DHT22;69819;48.798;11.770;2023-06-01T01:54:46;16.10;44.40
80495;DHT22;69819;48.798;11.770;2023-06-01T01:57:15;16.10;44.10
80495;DHT22;69819;48.798;11.770;2023-06-01T01:59:43;16.00;44.80
80495;DHT22;69819;48.798;11.770;2023-06-01T02:02:13;16.00;44.30
80495;DHT22;69819;48.798;11.770;2023-06-01T02:04:40;15.90;44.20
80495;DHT22;69819;48.798;11.770;2023-06-01T02:07:06;15.80;44.30
80495;DHT22;69819;48.798;11.770;2023-06-01T02:09:33;15.90;44.40
80495;DHT22;69819;48.798;11.770;2023-06-01T02:11:59;15.80;44.50
80495;DHT22;69819;48.798;11.770;2023-06-01T02:14:25;15.80;44.80
80495;DHT22;69819;48.798;11.770;2023-06-01T02:16:50;15.70;45.30
80495;DHT22;69819;48.798;11.770;2023-06-01T02:19:16;15.70;44.70
80495;DHT22;69819;48.798;11.770;2023-06-01T02:21:42;15.70;44.80
80495;DHT22;69819;48.798;11.770;2023-06-01T02:24:08;15.70;45.10
80495;DHT22;69819;48.798;11.770;2023-06-01T02:26:35;15.60;45.10
80495;DHT22;69819;48.798;11.770;2023-06-01T02:29:01;15.60;45.20
80495;DHT22;69819;48.798;11.770;2023-06-01T02:31:30;15.60;45.40
80495;DHT22;69819;48.798;11.770;2023-06-01T02:33:57;15.50;45.20
80495;DHT22;69819;48.798;11.770;2023-06-01T02:36:25;15.50;45.40
80495;DHT22;69819;48.798;11.770;2023-06-01T02:38:55;15.50;45.50
80495;DHT22;69819;48.798;11.770;2023-06-01T02:41:21;15.40;45.60
80495;DHT22;69819;48.798;11.770;2023-06-01T02:43:47;15.40;45.50
80495;DHT22;69819;48.798;11.770;2023-06-01T02:46:16;15.30;45.40
80495;DHT22;69819;48.798;11.770;2023-06-01T02:48:43;15.30;45.60
80495;DHT22;69819;48.798;11.770;2023-06-01T02:51:09;15.30;45.70
80495;DHT22;69819;48.798;11.770;2023-06-01T02:53:35;15.30;45.80
80495;DHT22;69819;48.798;11.770;2023-06-01T02:56:01;15.20;45.70
80495;DHT22;69819;48.798;11.770;2023-06-01T02:58:27;15.20;45.90
80495;DHT22;69819;48.798;11.770;2023-06-01T03:00:55;15.10;45.90
80495;DHT22;69819;48.798;11.770;2023-06-01T03:03:24;15.10;46.10
80495;DHT22;69819;48.798;11.770;2023-06-01T03:05:51;15.10;46.20
80495;DHT22;69819;48.798;11.770;2023-06-01T03:08:17;15.10;46.30
80495;DHT22;69819;48.798;11.770;2023-06-01T03:10:43;15.00;46.30
80495;DHT22;69819;48.798;11.770;2023-06-01T03:13:09;15.00;46.30
80495;DHT22;69819;48.798;11.770;2023-06-01T03:15:35;15.10;46.40
80495;DHT22;69819;48.798;11.770;2023-06-01T03:18:03;15.00;46.40
80495;DHT22;69819;48.798;11.770;2023-06-01T03:20:31;15.00;46.40
80495;DHT22;69819;48.798;11.770;2023-06-01T03:22:57;14.90;46.40
80495;DHT22;69819;48.798;11.770;2023-06-01T03:25:23;14.90;46.40
80495;DHT22;69819;48.798;11.770;2023-06-01T03:27:50;14.90;46.40
80495;DHT22;69819;48.798;11.770;2023-06-01T03:30:16;14.90;46.60
80495;DHT22;69819;48.798;11.770;2023-06-01T03:32:43;14.90;46.70
80495;DHT22;69819;48.798;11.770;2023-06-01T03:35:11;14.90;46.90
80495;DHT22;69819;48.798;11.770;2023-06-01T03:37:39;15.00;47.10
80495;DHT22;69819;48.798;11.770;2023-06-01T03:40:07;15.00;47.30
80495;DHT22;69819;48.798;11.770;2023-06-01T03:42:38;15.20;47.60
80495;DHT22;69819;48.798;11.770;2023-06-01T03:45:09;15.30;47.50
80495;DHT22;69819;48.798;11.770;2023-06-01T03:47:35;15.60;47.60
80495;DHT22;69819;48.798;11.770;2023-06-01T03:50:02;15.80;47.40
80495;DHT22;69819;48.798;11.770;2023-06-01T03:52:29;16.20;47.50
80495;DHT22;69819;48.798;11.770;2023-06-01T03:54:57;16.50;47.20
80495;DHT22;69819;48.798;11.770;2023-06-01T03:57:23;16.90;47.00
80495;DHT22;69819;48.798;11.770;2023-06-01T03:59:50;17.30;46.60
80495;DHT22;69819;48.798;11.770;2023-06-01T04:02:19;17.70;46.30
80495;DHT22;69819;48.798;11.770;2023-06-01T04:04:46;18.20;46.10
80495;DHT22;69819;48.798;11.770;2023-06-01T04:07:12;18.60;45.50
80495;DHT22;69819;48.798;11.770;2023-06-01T04:09:47;19.10;45.20
80495;DHT22;69819;48.798;11.770;2023-06-01T04:12:14;19.60;45.00
80495;DHT22;69819;48.798;11.770;2023-06-01T04:14:40;20.10;44.20
80495;DHT22;69819;48.798;11.770;2023-06-01T04:17:06;20.60;43.60
80495;DHT22;69819;48.798;11.770;2023-06-01T04:19:35;21.20;43.20
80495;DHT22;69819;48.798;11.770;2023-06-01T04:22:03;21.70;42.60
80495;DHT22;69819;48.798;11.770;2023-06-01T04:24:29;22.20;42.00
80495;DHT22;69819;48.798;11.770;2023-06-01T04:26:55;22.70;41.20
80495;DHT22;69819;48.798;11.770;2023-06-01T04:29:21;23.30;40.90
80495;DHT22;69819;48.798;11.770;2023-06-01T04:31:47;23.80;40.20
80495;DHT22;69819;48.798;11.770;2023-06-01T04:34:13;24.30;39.80
80495;DHT22;69819;48.798;11.770;2023-06-01T04:36:39;24.80;39.30
80495;DHT22;69819;48.798;11.770;2023-06-01T04:39:05;25.30;38.60
80495;DHT22;69819;48.798;11.770;2023-06-01T04:41:33;25.80;37.90
80495;DHT22;69819;48.798;11.770;2023-06-01T04:44:02;26.30;37.20
80495;DHT22;69819;48.798;11.770;2023-06-01T04:46:32;26.80;36.70
80495;DHT22;69819;48.798;11.770;2023-06-01T04:48:58;27.20;36.00
80495;DHT22;69819;48.798;11.770;2023-06-01T04:51:26;27.70;35.50
80495;DHT22;69819;48.798;11.770;2023-06-01T04:53:53;28.10;34.90
80495;DHT22;69819;48.798;11.770;2023-06-01T04:56:22;28.60;34.40
80495;DHT22;69819;48.798;11.770;2023-06-01T04:58:56;29.00;33.60
80495;DHT22;69819;48.798;11.770;2023-06-01T05:01:22;29.40;33.30
80495;DHT22;69819;48.798;11.770;2023-06-01T05:03:51;29.90;32.80
80495;DHT22;69819;48.798;11.770;2023-06-01T05:06:19;30.30;32.20
80495;DHT22;69819;48.798;11.770;2023-06-01T05:08:46;30.70;31.50
80495;DHT22;69819;48.798;11.770;2023-06-01T05:11:13;31.00;31.10
80495;DHT22;69819;48.798;11.770;2023-06-01T05:13:39;31.40;30.60
80495;DHT22;69819;48.798;11.770;2023-06-01T05:16:07;31.80;30.10
80495;DHT22;69819;48.798;11.770;2023-06-01T05:18:34;32.10;29.80
80495;DHT22;69819;48.798;11.770;2023-06-01T05:21:01;32.50;29.60
80495;DHT22;69819;48.798;11.770;2023-06-01T05:23:28;32.80;29.30
80495;DHT22;69819;48.798;11.770;2023-06-01T05:25:55;33.10;28.90
80495;DHT22;69819;48.798;11.770;2023-06-01T05:28:31;33.50;28.80
80495;DHT22;69819;48.798;11.770;2023-06-01T05:30:58;33.90;28.40
80495;DHT22;69819;48.798;11.770;2023-06-01T05:33:23;34.30;27.90
80495;DHT22;69819;48.798;11.770;2023-06-01T05:35:49;34.40;27.20
80495;DHT22;69819;48.798;11.770;2023-06-01T05:38:15;34.40;26.50
80495;DHT22;69819;48.798;11.770;2023-06-01T05:40:41;34.40;26.40
80495;DHT22;69819;48.798;11.770;2023-06-01T05:43:07;34.40;26.50
80495;DHT22;69819;48.798;11.770;2023-06-01T05:45:33;34.30;26.60
80495;DHT22;69819;48.798;11.770;2023-06-01T05:47:59;34.30;26.40
80495;DHT22;69819;48.798;11.770;2023-06-01T05:50:25;34.20;26.50
80495;DHT22;69819;48.798;11.770;2023-06-01T05:52:51;34.20;26.60
80495;DHT22;69819;48.798;11.770;2023-06-01T05:55:17;34.20;26.60
80495;DHT22;69819;48.798;11.770;2023-06-01T05:57:43;34.30;26.60
80495;DHT22;69819;48.798;11.770;2023-06-01T06:00:09;34.40;26.40
80495;DHT22;69819;48.798;11.770;2023-06-01T06:02:36;34.60;26.40
80495;DHT22;69819;48.798;11.770;2023-06-01T06:05:02;34.80;26.50
80495;DHT22;69819;48.798;11.770;2023-06-01T06:07:29;35.20;26.30
80495;DHT22;69819;48.798;11.770;2023-06-01T06:09:55;35.50;26.00
80495;DHT22;69819;48.798;11.770;2023-06-01T06:12:21;36.00;25.90
80495;DHT22;69819;48.798;11.770;2023-06-01T06:14:47;36.40;26.00
80495;DHT22;69819;48.798;11.770;2023-06-01T06:17:14;36.90;25.50
80495;DHT22;69819;48.798;11.770;2023-06-01T06:19:40;37.40;25.10
80495;DHT22;69819;48.798;11.770;2023-06-01T06:22:09;37.90;24.80
80495;DHT22;69819;48.798;11.770;2023-06-01T06:24:35;38.50;24.40
80495;DHT22;69819;48.798;11.770;2023-06-01T06:27:01;39.00;23.90
80495;DHT22;69819;48.798;11.770;2023-06-01T06:29:27;39.50;23.60
80495;DHT22;69819;48.798;11.770;2023-06-01T06:31:54;40.00;23.40
80495;DHT22;69819;48.798;11.770;2023-06-01T06:34:19;40.50;23.20
80495;DHT22;69819;48.798;11.770;2023-06-01T06:36:45;40.90;22.80
80495;DHT22;69819;48.798;11.770;2023-06-01T06:39:12;41.20;22.50
80495;DHT22;69819;48.798;11.770;2023-06-01T06:41:40;41.50;22.00
80495;DHT22;69819;48.798;11.770;2023-06-01T06:44:06;41.80;21.50
80495;DHT22;69819;48.798;11.770;2023-06-01T06:46:32;42.00;21.60
80495;DHT22;69819;48.798;11.770;2023-06-01T06:48:59;42.10;21.40
80495;DHT22;69819;48.798;11.770;2023-06-01T06:51:25;42.30;21.30
80495;DHT22;69819;48.798;11.770;2023-06-01T06:53:51;42.40;21.20
80495;DHT22;69819;48.798;11.770;2023-06-01T06:56:17;42.40;21.10
80495;DHT22;69819;48.798;11.770;2023-06-01T06:58:44;42.50;21.10
80495;DHT22;69819;48.798;11.770;2023-06-01T07:01:10;42.50;21.00
80495;DHT22;69819;48.798;11.770;2023-06-01T07:03:36;42.60;21.00
80495;DHT22;69819;48.798;11.770;2023-06-01T07:06:04;42.70;20.90
80495;DHT22;69819;48.798;11.770;2023-06-01T07:08:29;42.90;20.80
80495;DHT22;69819;48.798;11.770;2023-06-01T07:11:00;43.00;20.70
80495;DHT22;69819;48.798;11.770;2023-06-01T07:13:26;43.10;20.70
80495;DHT22;69819;48.798;11.770;2023-06-01T07:15:55;43.30;20.50
80495;DHT22;69819;48.798;11.770;2023-06-01T07:18:21;43.30;19.70
80495;DHT22;69819;48.798;11.770;2023-06-01T07:20:47;43.30;19.90
80495;DHT22;69819;48.798;11.770;2023-06-01T07:23:12;43.20;20.00
80495;DHT22;69819;48.798;11.770;2023-06-01T07:25:38;43.00;19.80
80495;DHT22;69819;48.798;11.770;2023-06-01T07:28:04;42.90;19.90
80495;DHT22;69819;48.798;11.770;2023-06-01T07:30:36;42.70;19.80
80495;DHT22;69819;48.798;11.770;2023-06-01T07:33:02;42.70;20.10
80495;DHT22;69819;48.798;11.770;2023-06-01T07:35:30;42.60;20.10
80495;DHT22;69819;48.798;11.770;2023-06-01T07:37:58;42.50;19.80
80495;DHT22;69819;48.798;11.770;2023-06-01T07:40:24;42.50;19.80
80495;DHT22;69819;48.798;11.770;2023-06-01T07:42:49;42.50;19.80
80495;DHT22;69819;48.798;11.770;2023-06-01T07:45:15;42.40;19.90
80495;DHT22;69819;48.798;11.770;2023-06-01T07:47:42;42.50;19.90
80495;DHT22;69819;48.798;11.770;2023-06-01T07:50:08;42.50;19.60
80495;DHT22;69819;48.798;11.770;2023-06-01T07:52:34;42.50;19.70
80495;DHT22;69819;48.798;11.770;2023-06-01T07:55:00;42.70;19.70
80495;DHT22;69819;48.798;11.770;2023-06-01T07:57:26;42.90;19.50
80495;DHT22;69819;48.798;11.770;2023-06-01T07:59:52;43.00;19.30
80495;DHT22;69819;48.798;11.770;2023-06-01T08:02:18;43.10;19.20
80495;DHT22;69819;48.798;11.770;2023-06-01T08:04:45;43.20;19.30
80495;DHT22;69819;48.798;11.770;2023-06-01T08:07:12;43.40;19.30
80495;DHT22;69819;48.798;11.770;2023-06-01T08:09:42;43.50;19.30
80495;DHT22;69819;48.798;11.770;2023-06-01T08:12:08;43.50;19.00
80495;DHT22;69819;48.798;11.770;2023-06-01T08:14:36;43.50;18.90
80495;DHT22;69819;48.798;11.770;2023-06-01T08:17:03;43.50;18.70
80495;DHT22;69819;48.798;11.770;2023-06-01T08:19:32;43.40;18.50
80495;DHT22;69819;48.798;11.770;2023-06-01T08:21:59;43.30;18.60
80495;DHT22;69819;48.798;11.770;2023-06-01T08:24:25;43.20;18.50
80495;DHT22;69819;48.798;11.770;2023-06-01T08:26:54;43.10;18.50
80495;DHT22;69819;48.798;11.770;2023-06-01T08:29:21;43.00;18.50
80495;DHT22;69819;48.798;11.770;2023-06-01T08:31:47;43.00;18.70
80495;DHT22;69819;48.798;11.770;2023-06-01T08:34:13;42.90;18.80
80495;DHT22;69819;48.798;11.770;2023-06-01T08:36:38;42.90;18.70
80495;DHT22;69819;48.798;11.770;2023-06-01T08:39:23;43.00;18.80
80495;DHT22;69819;48.798;11.770;2023-06-01T08:44:41;43.30;18.90
80495;DHT22;69819;48.798;11.770;2023-06-01T08:47:08;43.40;18.40
80495;DHT22;69819;48.798;11.770;2023-06-01T08:49:35;43.70;18.40
80495;DHT22;69819;48.798;11.770;2023-06-01T08:52:11;43.80;18.10
80495;DHT22;69819;48.798;11.770;2023-06-01T08:54:38;44.10;17.80
80495;DHT22;69819;48.798;11.770;2023-06-01T08:57:06;44.40;18.20
80495;DHT22;69819;48.798;11.770;2023-06-01T08:59:34;44.60;18.00
80495;DHT22;69819;48.798;11.770;2023-06-01T09:02:01;44.80;17.90
80495;DHT22;69819;48.798;11.770;2023-06-01T09:04:28;44.90;17.90
80495;DHT22;69819;48.798;11.770;2023-06-01T09:06:56;45.10;18.10
80495;DHT22;69819;48.798;11.770;2023-06-01T09:09:23;45.20;17.60
80495;DHT22;69819;48.798;11.770;2023-06-01T09:14:47;45.50;17.50
80495;DHT22;69819;48.798;11.770;2023-06-01T09:17:15;45.60;17.70
80495;DHT22;69819;48.798;11.770;2023-06-01T09:19:53;45.80;17.40
80495;DHT22;69819;48.798;11.770;2023-06-01T09:22:20;46.00;17.00
80495;DHT22;69819;48.798;11.770;2023-06-01T09:24:55;46.00;16.80
80495;DHT22;69819;48.798;11.770;2023-06-01T09:27:23;46.10;16.70
80495;DHT22;69819;48.798;11.770;2023-06-01T09:29:54;46.00;16.40
80495;DHT22;69819;48.798;11.770;2023-06-01T09:32:21;45.80;16.00
80495;DHT22;69819;48.798;11.770;2023-06-01T09:34:47;45.60;16.30
80495;DHT22;69819;48.798;11.770;2023-06-01T09:37:13;45.20;16.30
80495;DHT22;69819;48.798;11.770;2023-06-01T09:39:40;44.90;16.50
80495;DHT22;69819;48.798;11.770;2023-06-01T09:42:06;44.60;16.40
80495;DHT22;69819;48.798;11.770;2023-06-01T09:44:36;44.40;16.40
80495;DHT22;69819;48.798;11.770;2023-06-01T09:47:05;44.20;16.30
80495;DHT22;69819;48.798;11.770;2023-06-01T09:49:36;44.10;16.50
80495;DHT22;69819;48.798;11.770;2023-06-01T09:57:04;43.50;16.80
80495;DHT22;69819;48.798;11.770;2023-06-01T09:59:44;43.20;16.80
80495;DHT22;69819;48.798;11.770;2023-06-01T10:02:22;43.10;16.80
80495;DHT22;69819;48.798;11.770;2023-06-01T10:04:52;43.00;17.20
80495;DHT22;69819;48.798;11.770;2023-06-01T10:07:26;42.90;16.80
80495;DHT22;69819;48.798;11.770;2023-06-01T10:10:00;42.80;17.20
80495;DHT22;69819;48.798;11.770;2023-06-01T10:12:29;42.70;17.10
80495;DHT22;69819;48.798;11.770;2023-06-01T10:14:56;42.70;17.70
80495;DHT22;69819;48.798;11.770;2023-06-01T10:17:22;42.80;17.40
80495;DHT22;69819;48.798;11.770;2023-06-01T10:19:49;42.90;17.20
80495;DHT22;69819;48.798;11.770;2023-06-01T10:22:16;42.90;16.90
80495;DHT22;69819;48.798;11.770;2023-06-01T10:24:43;42.70;16.80
80495;DHT22;69819;48.798;11.770;2023-06-01T10:27:26;42.60;17.30
80495;DHT22;69819;48.798;11.770;2023-06-01T10:29:55;42.40;17.70
80495;DHT22;69819;48.798;11.770;2023-06-01T10:35:03;41.90;17.20
80495;DHT22;69819;48.798;11.770;2023-06-01T10:37:30;41.60;17.10
80495;DHT22;69819;48.798;11.770;2023-06-01T10:40:20;41.20;17.40
80495;DHT22;69819;48.798;11.770;2023-06-01T10:42:50;40.50;17.30
80495;DHT22;69819;48.798;11.770;2023-06-01T10:48:07;39.10;17.70
80495;DHT22;69819;48.798;11.770;2023-06-01T10:50:38;38.60;18.00
80495;DHT22;69819;48.798;11.770;2023-06-01T10:53:28;37.90;18.20
80495;DHT22;69819;48.798;11.770;2023-06-01T11:01:38;36.00;19.40
80495;DHT22;69819;48.798;11.770;2023-06-01T11:04:08;35.50;19.50
80495;DHT22;69819;48.798;11.770;2023-06-01T11:06:36;35.20;19.90
80495;DHT22;69819;48.798;11.770;2023-06-01T11:09:09;34.90;20.10
80495;DHT22;69819;48.798;11.770;2023-06-01T11:14:14;34.40;20.70
80495;DHT22;69819;48.798;11.770;2023-06-01T11:16:41;34.30;20.50
80495;DHT22;69819;48.798;11.770;2023-06-01T11:19:08;34.10;20.50
80495;DHT22;69819;48.798;11.770;2023-06-01T11:21:42;33.90;20.70
80495;DHT22;69819;48.798;11.770;2023-06-01T11:24:11;33.70;20.90
80495;DHT22;69819;48.798;11.770;2023-06-01T11:26:46;33.50;21.10
80495;DHT22;69819;48.798;11.770;2023-06-01T11:29:20;33.30;21.30
80495;DHT22;69819;48.798;11.770;2023-06-01T11:31:48;33.20;21.40
80495;DHT22;69819;48.798;11.770;2023-06-01T11:34:33;33.10;21.30
80495;DHT22;69819;48.798;11.770;2023-06-01T11:37:03;33.10;21.50
80495;DHT22;69819;48.798;11.770;2023-06-01T11:39:29;33.10;21.70
80495;DHT22;69819;48.798;11.770;2023-06-01T11:42:11;33.00;21.30
80495;DHT22;69819;48.798;11.770;2023-06-01T11:44:39;33.00;21.10
80495;DHT22;69819;48.798;11.770;2023-06-01T11:47:08;33.00;21.20
80495;DHT22;69819;48.798;11.770;2023-06-01T11:49:48;33.00;21.20
80495;DHT22;69819;48.798;11.770;2023-06-01T11:52:19;33.00;21.00
80495;DHT22;69819;48.798;11.770;2023-06-01T11:54:46;33.10;20.90
80495;DHT22;69819;48.798;11.770;2023-06-01T11:57:13;33.10;20.70
80495;DHT22;69819;48.798;11.770;2023-06-01T11:59:44;33.10;20.90
80495;DHT22;69819;48.798;11.770;2023-06-01T12:02:21;33.00;20.60
80495;DHT22;69819;48.798;11.770;2023-06-01T12:04:59;33.00;20.80
80495;DHT22;69819;48.798;11.770;2023-06-01T12:07:36;33.00;20.50
80495;DHT22;69819;48.798;11.770;2023-06-01T12:10:17;33.00;20.60
80495;DHT22;69819;48.798;11.770;2023-06-01T12:12:45;33.00;20.90
80495;DHT22;69819;48.798;11.770;2023-06-01T12:15:14;33.00;20.90
80495;DHT22;69819;48.798;11.770;2023-06-01T12:23:15;33.10;20.80
80495;DHT22;69819;48.798;11.770;2023-06-01T12:25:51;33.20;21.10
80495;DHT22;69819;48.798;11.770;2023-06-01T12:28:22;33.20;20.60
80495;DHT22;69819;48.798;11.770;2023-06-01T12:31:08;33.20;20.80
80495;DHT22;69819;48.798;11.770;2023-06-01T12:33:38;33.20;20.90
80495;DHT22;69819;48.798;11.770;2023-06-01T12:36:06;33.20;20.80
80495;DHT22;69819;48.798;11.770;2023-06-01T12:38:59;33.30;20.70
80495;DHT22;69819;48.798;11.770;2023-06-01T12:41:25;33.20;20.70
80495;DHT22;69819;48.798;11.770;2023-06-01T12:43:52;33.30;20.70
80495;DHT22;69819;48.798;11.770;2023-06-01T12:48:46;33.40;21.20
80495;DHT22;69819;48.798;11.770;2023-06-01T12:51:13;33.50;21.10
80495;DHT22;69819;48.798;11.770;2023-06-01T12:53:40;33.60;21.00
80495;DHT22;69819;48.798;11.770;2023-06-01T12:56:08;33.70;20.70
80495;DHT22;69819;48.798;11.770;2023-06-01T12:58:34;33.80;20.50
80495;DHT22;69819;48.798;11.770;2023-06-01T13:01:01;33.90;20.40
80495;DHT22;69819;48.798;11.770;2023-06-01T13:03:27;34.00;20.50
80495;DHT22;69819;48.798;11.770;2023-06-01T13:05:53;34.10;20.90
80495;DHT22;69819;48.798;11.770;2023-06-01T13:08:19;34.10;20.70
80495;DHT22;69819;48.798;11.770;2023-06-01T13:10:45;34.20;20.90
80495;DHT22;69819;48.798;11.770;2023-06-01T13:13:11;34.20;20.50
80495;DHT22;69819;48.798;11.770;2023-06-01T13:15:44;34.30;20.50
80495;DHT22;69819;48.798;11.770;2023-06-01T13:18:11;34.30;20.50
80495;DHT22;69819;48.798;11.770;2023-06-01T13:20:38;34.40;20.60
80495;DHT22;69819;48.798;11.770;2023-06-01T13:23:07;34.40;20.60
80495;DHT22;69819;48.798;11.770;2023-06-01T13:25:35;34.40;20.30
80495;DHT22;69819;48.798;11.770;2023-06-01T13:28:01;34.50;20.10
80495;DHT22;69819;48.798;11.770;2023-06-01T13:30:29;34.50;20.10
80495;DHT22;69819;48.798;11.770;2023-06-01T13:32:58;34.50;20.00
80495;DHT22;69819;48.798;11.770;2023-06-01T13:35:25;34.50;20.20
80495;DHT22;69819;48.798;11.770;2023-06-01T13:37:51;34.60;20.20
80495;DHT22;69819;48.798;11.770;2023-06-01T13:40:18;34.60;20.10
80495;DHT22;69819;48.798;11.770;2023-06-01T13:42:48;34.60;20.50
80495;DHT22;69819;48.798;11.770;2023-06-01T13:45:16;34.60;20.10
80495;DHT22;69819;48.798;11.770;2023-06-01T13:47:42;34.70;20.00
80495;DHT22;69819;48.798;11.770;2023-06-01T13:50:10;34.70;20.00
80495;DHT22;69819;48.798;11.770;2023-06-01T13:52:38;34.70;19.80
80495;DHT22;69819;48.798;11.770;2023-06-01T13:55:07;34.70;19.80
80495;DHT22;69819;48.798;11.770;2023-06-01T13:57:37;34.60;19.70
80495;DHT22;69819;48.798;11.770;2023-06-01T14:00:06;34.50;19.80
80495;DHT22;69819;48.798;11.770;2023-06-01T14:02:36;34.40;19.90
80495;DHT22;69819;48.798;11.770;2023-06-01T14:05:02;34.40;19.90
80495;DHT22;69819;48.798;11.770;2023-06-01T14:07:28;34.30;20.10
80495;DHT22;69819;48.798;11.770;2023-06-01T14:09:54;34.20;20.10
80495;DHT22;69819;48.798;11.770;2023-06-01T14:12:20;34.20;20.20
80495;DHT22;69819;48.798;11.770;2023-06-01T14:14:45;34.10;20.10
80495;DHT22;69819;48.798;11.770;2023-06-01T14:17:11;34.00;20.10
80495;DHT22;69819;48.798;11.770;2023-06-01T14:19:37;34.00;20.40
80495;DHT22;69819;48.798;11.770;2023-06-01T14:22:02;33.90;20.80
80495;DHT22;69819;48.798;11.770;2023-06-01T14:24:28;33.80;20.30
80495;DHT22;69819;48.798;11.770;2023-06-01T14:26:54;33.70;20.30
80495;DHT22;69819;48.798;11.770;2023-06-01T14:29:20;33.60;20.30
80495;DHT22;69819;48.798;11.770;2023-06-01T14:31:46;33.40;20.50
80495;DHT22;69819;48.798;11.770;2023-06-01T14:34:12;33.30;20.70
80495;DHT22;69819;48.798;11.770;2023-06-01T14:36:39;33.20;20.60
80495;DHT22;69819;48.798;11.770;2023-06-01T14:39:06;33.10;20.80
80495;DHT22;69819;48.798;11.770;2023-06-01T14:41:32;33.10;20.90
80495;DHT22;69819;48.798;11.770;2023-06-01T14:43:57;32.90;20.70
80495;DHT22;69819;48.798;11.770;2023-06-01T14:46:23;32.90;20.70
80495;DHT22;69819;48.798;11.770;2023-06-01T14:48:49;32.80;20.70
80495;DHT22;69819;48.798;11.770;2023-06-01T14:51:14;32.70;20.70
80495;DHT22;69819;48.798;11.770;2023-06-01T14:53:40;32.70;20.90
80495;DHT22;69819;48.798;11.770;2023-06-01T14:56:06;32.50;20.70
80495;DHT22;69819;48.798;11.770;2023-06-01T14:58:34;32.50;20.80
80495;DHT22;69819;48.798;11.770;2023-06-01T15:01:00;32.40;20.80
80495;DHT22;69819;48.798;11.770;2023-06-01T15:03:26;32.30;20.90
80495;DHT22;69819;48.798;11.770;2023-06-01T15:05:51;32.20;20.80
80495;DHT22;69819;48.798;11.770;2023-06-01T15:08:18;32.20;20.90
80495;DHT22;69819;48.798;11.770;2023-06-01T15:10:47;32.10;20.90
80495;DHT22;69819;48.798;11.770;2023-06-01T15:13:13;32.00;20.90
80495;DHT22;69819;48.798;11.770;2023-06-01T15:15:39;31.90;21.30
80495;DHT22;69819;48.798;11.770;2023-06-01T15:18:06;31.90;21.10
80495;DHT22;69819;48.798;11.770;2023-06-01T15:20:32;31.80;21.20
80495;DHT22;69819;48.798;11.770;2023-06-01T15:22:58;31.80;21.40
80495;DHT22;69819;48.798;11.770;2023-06-01T15:25:23;31.70;21.30
80495;DHT22;69819;48.798;11.770;2023-06-01T15:27:50;31.70;21.30
80495;DHT22;69819;48.798;11.770;2023-06-01T15:30:16;31.70;21.30
80495;DHT22;69819;48.798;11.770;2023-06-01T15:32:42;31.60;21.20
80495;DHT22;69819;48.798;11.770;2023-06-01T15:35:08;31.60;21.40
80495;DHT22;69819;48.798;11.770;2023-06-01T15:37:34;31.60;21.40
80495;DHT22;69819;48.798;11.770;2023-06-01T15:40:00;31.50;21.30
80495;DHT22;69819;48.798;11.770;2023-06-01T15:42:27;31.50;21.50
80495;DHT22;69819;48.798;11.770;2023-06-01T15:44:53;31.50;21.50
80495;DHT22;69819;48.798;11.770;2023-06-01T15:47:19;31.40;21.30
80495;DHT22;69819;48.798;11.770;2023-06-01T15:49:44;31.40;21.40
80495;DHT22;69819;48.798;11.770;2023-06-01T15:52:10;31.40;21.30
80495;DHT22;69819;48.798;11.770;2023-06-01T15:54:36;31.40;21.50
80495;DHT22;69819;48.798;11.770;2023-06-01T15:57:02;31.40;21.30
80495;DHT22;69819;48.798;11.770;2023-06-01T15:59:32;31.30;21.60
80495;DHT22;69819;48.798;11.770;2023-06-01T16:01:58;31.30;21.40
80495;DHT22;69819;48.798;11.770;2023-06-01T16:04:26;31.30;21.20